Time;durP1;ratioP1;P1;durP2;ratioP2;P2;SDS_P1;SDS_P2;PMS_P1;PMS_P2;Temp;Humidity;BMP_temperature;BMP_pressure;BME280_temperature;BME280_humidity;BME280_pressure;Samples;Min_cycle;Max_cycle;Signal;HPM_P1;HPM_P2
2022/11/04 00:01:45;;;;;;;1.10;1.00;;;;;;;;;;5014470;28;99864;-79
2022/11/04 00:04:13;;;;;;;2.92;1.15;;;;;;;;;;5035871;28;99284;-78
2022/11/04 00:06:40;;;;;;;1.33;0.98;;;;;;;;;;5031719;28;98688;-79
2022/11/04 00:09:07;;;;;;;1.25;1.15;;;;;;;;;;5032288;28;98650;-79
2022/11/04 00:14:18;;;;;;;0.90;0.90;;;;;;;;;;5032653;28;101500;-79
2022/11/04 00:28:41;;;;;;;1.40;0.90;;;;;;;;;;5031533;28;99118;-79
2022/11/04 00:30:30;;;;;;;4.22;1.00;;;;;;;;;;5031516;28;99366;-79
2022/11/04 00:35:47;;;;;;;7.80;1.10;;;;;;;;;;5031341;28;99503;-78
2022/11/04 00:38:13;;;;;;;2.05;1.08;;;;;;;;;;5051303;27;98673;-78
2022/11/04 00:40:40;;;;;;;2.00;0.80;;;;;;;;;;5034884;27;102296;-78
2022/11/04 00:43:06;;;;;;;2.60;1.02;;;;;;;;;;5052007;27;99798;-79
2022/11/04 00:45:32;;;;;;;1.17;0.90;;;;;;;;;;5047079;27;98448;-78
2022/11/04 00:47:58;;;;;;;1.05;0.90;;;;;;;;;;5035183;28;99137;-78
2022/11/04 00:50:25;;;;;;;1.73;0.77;;;;;;;;;;5031678;28;98486;-78
2022/11/04 00:52:56;;;;;;;1.45;0.93;;;;;;;;;;5031851;28;99252;-79
2022/11/04 00:55:23;;;;;;;1.92;1.10;;;;;;;;;;5013459;28;100532;-79
2022/11/04 00:57:49;;;;;;;0.82;0.82;;;;;;;;;;5031905;28;98514;-78
2022/11/04 01:00:15;;;;;;;1.08;0.98;;;;;;;;;;5031675;28;99408;-79
2022/11/04 01:02:41;;;;;;;1.05;0.88;;;;;;;;;;5012990;28;99499;-78
2022/11/04 01:05:08;;;;;;;1.13;0.77;;;;;;;;;;5013607;28;98559;-79
2022/11/04 01:07:34;;;;;;;1.10;0.70;;;;;;;;;;5013492;28;99156;-78
2022/11/04 01:10:08;;;;;;;1.40;0.90;;;;;;;;;;5017030;28;99644;-79
2022/11/04 01:12:35;;;;;;;2.25;1.00;;;;;;;;;;5032104;28;99063;-79
2022/11/04 01:15:01;;;;;;;1.25;0.90;;;;;;;;;;5013599;28;102538;-78
2022/11/04 01:17:27;;;;;;;2.90;1.05;;;;;;;;;;5031008;28;98507;-79
2022/11/04 01:19:53;;;;;;;0.70;0.70;;;;;;;;;;5031452;28;101510;-79
2022/11/04 01:22:20;;;;;;;1.05;0.80;;;;;;;;;;5013073;28;99566;-79
2022/11/04 01:24:46;;;;;;;1.27;0.70;;;;;;;;;;5013543;28;98536;-79
2022/11/04 01:27:12;;;;;;;1.83;0.80;;;;;;;;;;5031815;28;99440;-79
2022/11/04 01:29:38;;;;;;;1.45;0.80;;;;;;;;;;5030572;28;99522;-79
2022/11/04 01:32:05;;;;;;;1.38;0.70;;;;;;;;;;5016555;28;98517;-79
2022/11/04 01:34:31;;;;;;;0.90;0.60;;;;;;;;;;5031045;28;99901;-79
2022/11/04 01:36:57;;;;;;;1.27;0.95;;;;;;;;;;5022137;27;97730;-79
2022/11/04 01:39:23;;;;;;;1.17;0.60;;;;;;;;;;5051536;27;98533;-79
2022/11/04 01:41:50;;;;;;;0.93;0.70;;;;;;;;;;5050976;27;99446;-79
2022/11/04 01:44:45;;;;;;;0.68;0.52;;;;;;;;;;5050816;27;99356;-79
2022/11/04 01:47:15;;;;;;;1.38;0.85;;;;;;;;;;4988159;28;100448;-79
2022/11/04 01:49:42;;;;;;;0.98;0.77;;;;;;;;;;5010703;28;101073;-79
2022/11/04 01:52:11;;;;;;;1.00;0.70;;;;;;;;;;4993008;28;98520;-79
2022/11/04 01:54:37;;;;;;;1.15;0.80;;;;;;;;;;4996356;28;99283;-79
2022/11/04 01:57:06;;;;;;;0.98;0.60;;;;;;;;;;5010262;28;98505;-79
2022/11/04 01:59:35;;;;;;;1.65;0.63;;;;;;;;;;5010826;28;99398;-79
2022/11/04 02:02:01;;;;;;;0.85;0.60;;;;;;;;;;4992903;28;98787;-79
2022/11/04 02:04:29;;;;;;;0.93;0.65;;;;;;;;;;5010701;28;98538;-79
2022/11/04 02:06:56;;;;;;;0.52;0.52;;;;;;;;;;5010317;28;99243;-79
2022/11/04 02:09:23;;;;;;;1.95;0.90;;;;;;;;;;5009074;28;100214;-78
2022/11/04 02:14:35;;;;;;;0.40;0.40;;;;;;;;;;5010782;28;99125;-79
2022/11/04 02:17:09;;;;;;;2.05;0.77;;;;;;;;;;5012706;28;99492;-79
2022/11/04 02:19:54;;;;;;;0.65;0.60;;;;;;;;;;5012568;28;99129;-78
2022/11/04 02:22:38;;;;;;;0.75;0.70;;;;;;;;;;5030288;28;99797;-79
2022/11/04 02:25:05;;;;;;;0.50;0.40;;;;;;;;;;5031052;28;98471;-79
2022/11/04 02:27:34;;;;;;;1.65;0.73;;;;;;;;;;5030972;28;99291;-78
2022/11/04 02:30:06;;;;;;;0.75;0.47;;;;;;;;;;5029849;28;98699;-79
2022/11/04 02:32:32;;;;;;;1.05;0.63;;;;;;;;;;5030083;28;98430;-79
2022/11/04 02:35:04;;;;;;;1.08;0.60;;;;;;;;;;5029866;28;99482;-79
2022/11/04 02:37:34;;;;;;;0.95;0.52;;;;;;;;;;5033851;28;102140;-78
2022/11/04 02:40:00;;;;;;;1.17;0.60;;;;;;;;;;5030360;28;99151;-79
2022/11/04 02:42:35;;;;;;;1.60;0.63;;;;;;;;;;5014315;28;100943;-79
2022/11/04 02:45:10;;;;;;;0.57;0.57;;;;;;;;;;5015598;28;98610;-79
2022/11/04 02:47:38;;;;;;;1.45;0.70;;;;;;;;;;5015775;28;99290;-79
2022/11/04 02:50:16;;;;;;;1.13;0.80;;;;;;;;;;5033933;28;99477;-79
2022/11/04 02:52:46;;;;;;;0.82;0.57;;;;;;;;;;5015947;28;97814;-79
2022/11/04 02:55:18;;;;;;;0.55;0.55;;;;;;;;;;5016801;28;99959;-78
2022/11/04 02:57:47;;;;;;;0.50;0.50;;;;;;;;;;5033047;28;99494;-79
2022/11/04 03:00:13;;;;;;;2.95;0.40;;;;;;;;;;5018548;28;99372;-79
2022/11/04 03:02:42;;;;;;;0.82;0.43;;;;;;;;;;5033105;28;99449;-79
2022/11/04 03:05:11;;;;;;;1.25;0.60;;;;;;;;;;5033870;28;98519;-79
2022/11/04 03:07:39;;;;;;;0.57;0.50;;;;;;;;;;5032732;28;99627;-79
2022/11/04 03:10:08;;;;;;;1.60;0.57;;;;;;;;;;5033143;28;99437;-79
2022/11/04 03:12:41;;;;;;;0.70;0.50;;;;;;;;;;5033450;28;98519;-79
2022/11/04 03:15:13;;;;;;;0.52;0.45;;;;;;;;;;5033370;28;99442;-79
2022/11/04 03:17:48;;;;;;;0.88;0.50;;;;;;;;;;5034118;28;98713;-79
2022/11/04 03:20:20;;;;;;;0.30;0.30;;;;;;;;;;5015672;28;98631;-78
2022/11/04 03:22:47;;;;;;;0.40;0.40;;;;;;;;;;5018017;28;99139;-78
2022/11/04 03:25:14;;;;;;;1.88;0.88;;;;;;;;;;5014937;28;99201;-79
2022/11/04 03:27:47;;;;;;;0.75;0.60;;;;;;;;;;5033078;28;100439;-79
2022/11/04 03:30:16;;;;;;;0.60;0.35;;;;;;;;;;5033380;28;99444;-79
2022/11/04 03:32:49;;;;;;;0.40;0.40;;;;;;;;;;5015398;28;98614;-79
2022/11/04 03:35:16;;;;;;;1.52;0.52;;;;;;;;;;5015178;28;99474;-79
2022/11/04 03:37:43;;;;;;;0.85;0.40;;;;;;;;;;5047083;27;99480;-79
2022/11/04 03:40:10;;;;;;;0.85;0.45;;;;;;;;;;5035574;27;98726;-79
2022/11/04 03:42:39;;;;;;;0.82;0.50;;;;;;;;;;5053632;27;98022;-79
2022/11/04 03:45:05;;;;;;;3.15;0.68;;;;;;;;;;5054729;27;99541;-79
2022/11/04 03:47:32;;;;;;;0.35;0.35;;;;;;;;;;5032527;28;99162;-79
2022/11/04 03:50:05;;;;;;;0.40;0.40;;;;;;;;;;5031996;28;100542;-79
2022/11/04 03:52:31;;;;;;;0.82;0.60;;;;;;;;;;5032470;27;98504;-79
2022/11/04 03:54:58;;;;;;;1.60;0.90;;;;;;;;;;5031861;28;99144;-79
2022/11/04 03:57:33;;;;;;;1.65;0.70;;;;;;;;;;5014332;28;99900;-79
2022/11/04 04:00:09;;;;;;;0.40;0.40;;;;;;;;;;5033019;28;98459;-79
2022/11/04 04:02:35;;;;;;;0.52;0.40;;;;;;;;;;5033151;28;102062;-79
2022/11/04 04:05:05;;;;;;;0.63;0.47;;;;;;;;;;5032284;28;99497;-79
2022/11/04 04:07:37;;;;;;;1.33;0.70;;;;;;;;;;5036250;28;97741;-79
2022/11/04 04:10:37;;;;;;;0.57;0.50;;;;;;;;;;5032369;28;99656;-79
2022/11/04 04:12:53;;;;;;;;;;;;;;;;;;5032873;28;98501;-79
2022/11/04 04:15:22;;;;;;;0.95;0.60;;;;;;;;;;5033102;28;129287;-78
2022/11/04 04:17:51;;;;;;;0.52;0.52;;;;;;;;;;5013905;28;99524;-78
2022/11/04 04:20:19;;;;;;;0.28;0.28;;;;;;;;;;5032426;28;98498;-79
2022/11/04 04:22:51;;;;;;;0.60;0.60;;;;;;;;;;5013993;28;99444;-78
2022/11/04 04:28:03;;;;;;;0.70;0.50;;;;;;;;;;5031994;28;98458;-78
2022/11/04 04:30:30;;;;;;;1.05;0.70;;;;;;;;;;5035247;28;99138;-79
2022/11/04 04:32:58;;;;;;;1.50;0.55;;;;;;;;;;5015033;28;97745;-78
2022/11/04 04:35:43;;;;;;;0.45;0.43;;;;;;;;;;5032298;28;100150;-79
2022/11/04 04:46:47;;;;;;;0.88;0.63;;;;;;;;;;5036555;27;99479;-78
2022/11/04 04:49:13;;;;;;;0.82;0.60;;;;;;;;;;5014120;28;100019;-79
2022/11/04 04:51:42;;;;;;;1.27;0.82;;;;;;;;;;5034848;28;99155;-78
2022/11/04 04:54:08;;;;;;;1.63;0.80;;;;;;;;;;5032091;28;98845;-79
2022/11/04 04:56:34;;;;;;;1.23;0.70;;;;;;;;;;5014003;28;99167;-79
2022/11/04 04:59:01;;;;;;;0.75;0.60;;;;;;;;;;5031882;28;98753;-79
2022/11/04 05:01:27;;;;;;;0.50;0.50;;;;;;;;;;5013639;28;98670;-80
2022/11/04 05:03:53;;;;;;;0.60;0.60;;;;;;;;;;5014162;27;99818;-79
2022/11/04 05:06:20;;;;;;;0.65;0.50;;;;;;;;;;5030132;28;99889;-79
2022/11/04 05:08:46;;;;;;;2.22;0.65;;;;;;;;;;5013430;28;98671;-79
2022/11/04 05:11:12;;;;;;;0.80;0.70;;;;;;;;;;5031972;28;100161;-79
2022/11/04 05:13:39;;;;;;;0.70;0.70;;;;;;;;;;5034945;28;99274;-79
2022/11/04 05:16:06;;;;;;;0.70;0.70;;;;;;;;;;5031358;28;99163;-79
2022/11/04 05:18:32;;;;;;;0.63;0.63;;;;;;;;;;5030833;28;99495;-79
2022/11/04 05:21:02;;;;;;;0.77;0.70;;;;;;;;;;5031741;28;98456;-78
2022/11/04 05:23:28;;;;;;;1.63;0.87;;;;;;;;;;5032060;28;99776;-79
2022/11/04 05:25:57;;;;;;;2.53;0.88;;;;;;;;;;5030936;28;99521;-79
2022/11/04 05:28:23;;;;;;;0.73;0.70;;;;;;;;;;5013061;28;98523;-79
2022/11/04 05:30:49;;;;;;;1.55;1.00;;;;;;;;;;5031403;28;99512;-79
2022/11/04 05:33:15;;;;;;;1.48;0.80;;;;;;;;;;5030932;28;102593;-79
2022/11/04 05:35:42;;;;;;;0.95;0.88;;;;;;;;;;5034107;28;98453;-78
2022/11/04 05:38:08;;;;;;;1.35;0.80;;;;;;;;;;5030971;27;99796;-79
2022/11/04 05:40:34;;;;;;;1.70;0.80;;;;;;;;;;5033965;27;98517;-79
2022/11/04 05:43:01;;;;;;;2.58;1.10;;;;;;;;;;5033399;27;99583;-79
2022/11/04 05:45:28;;;;;;;0.98;0.70;;;;;;;;;;5046644;27;100398;-79
2022/11/04 05:48:01;;;;;;;1.15;1.05;;;;;;;;;;5013810;28;97752;-78
2022/11/04 05:50:29;;;;;;;1.15;0.88;;;;;;;;;;5030762;28;98720;-78
2022/11/04 05:52:56;;;;;;;2.25;1.00;;;;;;;;;;5030545;28;99530;-79
2022/11/04 05:55:23;;;;;;;1.70;0.90;;;;;;;;;;5030261;28;99260;-79
2022/11/04 05:57:49;;;;;;;1.15;1.00;;;;;;;;;;5016228;28;100224;-78
2022/11/04 06:00:16;;;;;;;1.05;0.95;;;;;;;;;;5012900;28;98495;-79
2022/11/04 06:02:42;;;;;;;1.10;0.82;;;;;;;;;;5012728;28;99694;-78
2022/11/04 06:05:08;;;;;;;0.70;0.70;;;;;;;;;;5012500;28;99602;-78
2022/11/04 06:07:35;;;;;;;1.35;0.82;;;;;;;;;;5030452;28;98488;-78
2022/11/04 06:10:01;;;;;;;1.13;0.90;;;;;;;;;;5012421;28;99179;-79
2022/11/04 06:12:27;;;;;;;1.38;0.90;;;;;;;;;;5030980;28;99063;-79
2022/11/04 06:14:53;;;;;;;1.30;1.20;;;;;;;;;;5012726;28;99344;-79
2022/11/04 06:17:20;;;;;;;1.02;0.90;;;;;;;;;;5011915;28;100747;-79
2022/11/04 06:19:47;;;;;;;1.63;1.10;;;;;;;;;;5033069;28;100204;-79
2022/11/04 06:22:14;;;;;;;0.98;0.93;;;;;;;;;;5030318;28;99875;-79
2022/11/04 06:24:41;;;;;;;1.88;0.82;;;;;;;;;;5029773;28;99531;-79
2022/11/04 06:27:08;;;;;;;0.80;0.80;;;;;;;;;;5030602;28;98498;-79
2022/11/04 06:29:38;;;;;;;1.35;1.10;;;;;;;;;;5012435;28;99296;-78
2022/11/04 06:32:09;;;;;;;0.88;0.80;;;;;;;;;;5030125;28;99497;-79
2022/11/04 06:34:35;;;;;;;2.35;1.10;;;;;;;;;;5012672;28;98499;-79
2022/11/04 06:37:02;;;;;;;1.35;0.90;;;;;;;;;;5021958;27;99500;-78
2022/11/04 06:39:28;;;;;;;1.73;1.00;;;;;;;;;;5032241;27;99480;-79
2022/11/04 06:41:55;;;;;;;1.00;0.90;;;;;;;;;;5054222;27;98486;-78
2022/11/04 06:44:24;;;;;;;1.55;0.93;;;;;;;;;;5032374;27;100399;-78
2022/11/04 06:46:51;;;;;;;0.82;0.82;;;;;;;;;;5035016;27;98523;-79
2022/11/04 06:49:18;;;;;;;1.95;1.00;;;;;;;;;;5030151;28;99108;-78
2022/11/04 06:51:45;;;;;;;2.95;0.90;;;;;;;;;;5011930;28;99545;-79
2022/11/04 06:54:12;;;;;;;2.00;0.90;;;;;;;;;;5011966;28;98507;-79
2022/11/04 06:56:38;;;;;;;0.75;0.75;;;;;;;;;;5030659;28;99599;-79
2022/11/04 06:59:06;;;;;;;1.20;0.77;;;;;;;;;;5029492;28;99856;-78
2022/11/04 07:01:33;;;;;;;1.50;1.05;;;;;;;;;;5033852;28;97696;-79
2022/11/04 07:04:00;;;;;;;0.95;0.90;;;;;;;;;;5029927;28;99797;-79
2022/11/04 07:06:28;;;;;;;1.10;0.70;;;;;;;;;;5012267;28;98464;-79
2022/11/04 07:08:56;;;;;;;1.50;0.80;;;;;;;;;;5011635;28;100944;-79
2022/11/04 07:11:23;;;;;;;0.93;0.80;;;;;;;;;;5030207;28;99997;-79
2022/11/04 07:13:50;;;;;;;1.45;0.98;;;;;;;;;;5029747;28;98499;-79
2022/11/04 07:16:16;;;;;;;0.70;0.70;;;;;;;;;;5030515;28;101986;-78
2022/11/04 07:18:43;;;;;;;1.73;0.93;;;;;;;;;;5012013;28;99485;-79
2022/11/04 07:21:10;;;;;;;0.90;0.90;;;;;;;;;;5029882;28;98513;-79
2022/11/04 07:23:36;;;;;;;0.88;0.85;;;;;;;;;;5032375;28;99412;-79
2022/11/04 07:26:04;;;;;;;1.10;0.75;;;;;;;;;;5029930;28;97773;-78
2022/11/04 07:28:30;;;;;;;1.23;0.98;;;;;;;;;;5013894;28;98534;-79
2022/11/04 07:30:57;;;;;;;2.47;1.02;;;;;;;;;;5014852;28;98687;-79
2022/11/04 07:33:25;;;;;;;1.55;1.00;;;;;;;;;;5032423;28;99213;-79
2022/11/04 07:35:52;;;;;;;1.35;0.90;;;;;;;;;;5033044;28;99896;-79
2022/11/04 07:38:23;;;;;;;1.02;1.00;;;;;;;;;;5013164;28;99439;-79
2022/11/04 07:40:49;;;;;;;0.75;0.75;;;;;;;;;;5012607;28;98473;-79
2022/11/04 07:43:16;;;;;;;2.40;0.88;;;;;;;;;;5013564;28;101347;-79
2022/11/04 07:45:42;;;;;;;3.33;1.02;;;;;;;;;;5004432;28;100563;-79
2022/11/04 07:48:09;;;;;;;1.38;0.93;;;;;;;;;;5033474;28;102538;-79
2022/11/04 07:50:37;;;;;;;3.33;0.88;;;;;;;;;;5032850;28;98855;-79
2022/11/04 07:53:04;;;;;;;1.00;1.00;;;;;;;;;;5014777;28;98658;-79
2022/11/04 07:55:30;;;;;;;1.75;1.00;;;;;;;;;;5032962;28;100072;-79
2022/11/04 07:57:56;;;;;;;0.95;0.82;;;;;;;;;;5031569;28;100560;-78
2022/11/04 08:00:22;;;;;;;1.33;0.77;;;;;;;;;;5032429;28;98557;-79
2022/11/04 08:02:49;;;;;;;0.70;0.70;;;;;;;;;;5014649;28;99718;-79
2022/11/04 08:05:15;;;;;;;2.22;1.25;;;;;;;;;;5032357;28;99697;-79
2022/11/04 08:07:42;;;;;;;1.00;0.90;;;;;;;;;;5018320;28;98511;-79
2022/11/04 08:10:09;;;;;;;1.67;0.95;;;;;;;;;;5014383;28;99909;-79
2022/11/04 08:12:36;;;;;;;1.98;0.90;;;;;;;;;;5032713;28;98368;-79
2022/11/04 08:15:04;;;;;;;0.70;0.70;;;;;;;;;;5015095;28;99125;-79
2022/11/04 08:17:30;;;;;;;1.58;0.90;;;;;;;;;;5014832;28;99501;-79
2022/11/04 08:19:56;;;;;;;1.85;0.90;;;;;;;;;;5033045;28;98531;-79
2022/11/04 08:22:23;;;;;;;1.08;0.82;;;;;;;;;;5031492;28;99136;-79
2022/11/04 08:24:55;;;;;;;1.13;0.77;;;;;;;;;;5032396;28;101721;-79
2022/11/04 08:27:22;;;;;;;1.52;0.90;;;;;;;;;;5032105;28;98508;-79
2022/11/04 08:29:48;;;;;;;1.60;0.80;;;;;;;;;;5034827;28;99112;-79
2022/11/04 08:32:14;;;;;;;1.23;0.90;;;;;;;;;;5032161;28;98489;-79
2022/11/04 08:34:41;;;;;;;1.20;1.00;;;;;;;;;;5032606;28;100140;-78
2022/11/04 08:37:07;;;;;;;2.47;0.88;;;;;;;;;;5024088;27;102352;-79
2022/11/04 08:39:33;;;;;;;2.20;1.02;;;;;;;;;;5052628;27;97730;-79
2022/11/04 08:41:59;;;;;;;1.85;0.85;;;;;;;;;;5052577;27;98492;-79
2022/11/04 08:44:26;;;;;;;1.38;1.10;;;;;;;;;;5052024;27;99688;-78
2022/11/04 08:46:52;;;;;;;1.48;0.80;;;;;;;;;;5017718;28;99370;-79
2022/11/04 08:49:19;;;;;;;1.73;1.00;;;;;;;;;;5035617;28;101361;-78
2022/11/04 08:51:53;;;;;;;3.40;1.00;;;;;;;;;;5014188;28;98671;-79
2022/11/04 08:54:19;;;;;;;1.25;0.98;;;;;;;;;;5014119;28;99121;-79
2022/11/04 08:56:45;;;;;;;1.08;0.98;;;;;;;;;;5032112;28;100141;-79
2022/11/04 08:59:13;;;;;;;1.23;1.00;;;;;;;;;;5031785;28;98726;-79
2022/11/04 09:01:41;;;;;;;1.40;0.82;;;;;;;;;;5031868;28;99107;-79
2022/11/04 09:04:08;;;;;;;1.85;0.90;;;;;;;;;;5031899;28;98750;-79
2022/11/04 09:06:36;;;;;;;1.42;0.93;;;;;;;;;;5031634;28;98528;-79
2022/11/04 09:09:03;;;;;;;0.68;0.65;;;;;;;;;;5013272;28;99176;-79
2022/11/04 09:11:31;;;;;;;2.65;1.00;;;;;;;;;;5034190;28;100513;-79
2022/11/04 09:13:58;;;;;;;1.00;0.90;;;;;;;;;;5013805;28;99872;-79
2022/11/04 09:16:24;;;;;;;1.17;0.77;;;;;;;;;;5030819;28;99709;-79
2022/11/04 09:18:50;;;;;;;1.27;0.85;;;;;;;;;;5013427;28;98543;-79
2022/11/04 09:21:17;;;;;;;1.33;0.80;;;;;;;;;;5032183;28;99184;-79
2022/11/04 09:23:43;;;;;;;2.20;1.00;;;;;;;;;;5030873;28;99470;-79
2022/11/04 09:26:11;;;;;;;1.17;0.85;;;;;;;;;;5031227;28;98604;-79
2022/11/04 09:28:37;;;;;;;1.65;0.90;;;;;;;;;;5013800;28;99134;-79
2022/11/04 09:31:05;;;;;;;0.93;0.70;;;;;;;;;;5030379;28;99825;-79
2022/11/04 09:33:32;;;;;;;1.23;1.00;;;;;;;;;;5034558;28;98515;-79
2022/11/04 09:35:58;;;;;;;1.23;1.00;;;;;;;;;;5030192;27;100232;-78
2022/11/04 09:38:24;;;;;;;1.02;0.90;;;;;;;;;;5051608;27;98485;-79
2022/11/04 09:40:51;;;;;;;3.20;0.98;;;;;;;;;;5051383;27;99127;-79
2022/11/04 09:43:20;;;;;;;1.15;0.88;;;;;;;;;;5051039;27;100142;-79
2022/11/04 09:45:46;;;;;;;2.33;1.10;;;;;;;;;;5044057;27;98547;-79
2022/11/04 09:48:33;;;;;;;1.25;1.10;;;;;;;;;;5013027;28;99564;-79
2022/11/04 09:51:02;;;;;;;1.65;1.10;;;;;;;;;;5012013;28;99423;-78
2022/11/04 09:53:34;;;;;;;1.85;0.82;;;;;;;;;;5013518;28;97796;-79
2022/11/04 09:56:03;;;;;;;0.80;0.80;;;;;;;;;;5016007;28;98729;-79
2022/11/04 09:58:32;;;;;;;0.93;0.80;;;;;;;;;;5012943;28;98411;-78
2022/11/04 10:01:01;;;;;;;1.80;0.90;;;;;;;;;;5030352;28;99436;-79
2022/11/04 10:03:28;;;;;;;2.13;1.00;;;;;;;;;;5030347;28;100033;-79
2022/11/04 10:05:54;;;;;;;2.83;0.88;;;;;;;;;;5030171;28;98591;-79
2022/11/04 10:08:39;;;;;;;1.15;0.80;;;;;;;;;;5030690;28;99514;-79
2022/11/04 10:11:14;;;;;;;1.15;0.85;;;;;;;;;;5030212;28;99990;-79
2022/11/04 10:14:03;;;;;;;2.83;0.88;;;;;;;;;;5013019;28;98610;-79
2022/11/04 10:16:35;;;;;;;3.33;0.95;;;;;;;;;;5013074;28;99447;-79
2022/11/04 10:19:04;;;;;;;1.30;0.90;;;;;;;;;;5033910;28;99280;-79
2022/11/04 10:21:38;;;;;;;1.67;0.77;;;;;;;;;;5030627;28;98617;-79
2022/11/04 10:24:11;;;;;;;1.52;1.10;;;;;;;;;;5012202;28;99897;-79
2022/11/04 10:26:58;;;;;;;1.30;1.20;;;;;;;;;;5012131;28;99233;-80
2022/11/04 10:29:29;;;;;;;1.65;0.88;;;;;;;;;;5031167;28;100156;-79
2022/11/04 10:31:57;;;;;;;2.30;0.90;;;;;;;;;;5030069;28;99479;-79
2022/11/04 10:34:38;;;;;;;1.55;1.00;;;;;;;;;;5030183;28;98503;-79
2022/11/04 10:37:07;;;;;;;2.25;1.20;;;;;;;;;;5021980;27;99155;-79
2022/11/04 10:39:36;;;;;;;1.85;1.25;;;;;;;;;;5050174;27;99844;-79
2022/11/04 10:42:03;;;;;;;1.80;1.30;;;;;;;;;;5053584;27;98469;-79
2022/11/04 10:44:34;;;;;;;1.80;1.10;;;;;;;;;;5033072;27;98754;-78
2022/11/04 10:47:06;;;;;;;1.38;1.00;;;;;;;;;;5033375;27;98488;-79
2022/11/04 10:49:38;;;;;;;2.05;1.30;;;;;;;;;;5030211;28;99395;-79
2022/11/04 10:52:05;;;;;;;3.50;1.30;;;;;;;;;;5029302;28;100183;-79
2022/11/04 10:54:39;;;;;;;1.73;1.13;;;;;;;;;;5012581;28;98462;-79
2022/11/04 10:57:05;;;;;;;4.00;1.48;;;;;;;;;;5012310;28;99420;-79
2022/11/04 10:59:37;;;;;;;1.35;1.25;;;;;;;;;;5029775;28;99452;-79
2022/11/04 11:02:03;;;;;;;2.10;1.30;;;;;;;;;;5033895;28;98466;-79
2022/11/04 11:04:32;;;;;;;2.55;1.33;;;;;;;;;;5033048;28;99904;-79
2022/11/04 11:06:59;;;;;;;1.65;1.30;;;;;;;;;;5033138;28;98469;-79
2022/11/04 11:09:30;;;;;;;2.17;1.35;;;;;;;;;;5015509;28;99131;-79
2022/11/04 11:12:01;;;;;;;1.83;1.42;;;;;;;;;;5033069;28;99551;-79
2022/11/04 11:14:27;;;;;;;2.30;1.30;;;;;;;;;;5034159;28;98508;-79
2022/11/04 11:16:54;;;;;;;2.40;1.48;;;;;;;;;;5032656;28;99497;-79
2022/11/04 11:19:23;;;;;;;2.75;1.42;;;;;;;;;;5032963;28;99898;-78
2022/11/04 11:21:54;;;;;;;4.18;1.83;;;;;;;;;;5033863;28;98442;-79
2022/11/04 11:24:21;;;;;;;2.60;1.40;;;;;;;;;;5018436;28;99264;-79
2022/11/04 11:26:50;;;;;;;3.85;1.50;;;;;;;;;;5015929;28;100420;-79
2022/11/04 11:29:20;;;;;;;2.40;1.50;;;;;;;;;;5015648;28;99540;-79
2022/11/04 11:31:46;;;;;;;2.97;1.33;;;;;;;;;;5033170;28;100926;-79
2022/11/04 11:34:16;;;;;;;1.48;1.30;;;;;;;;;;5033408;28;97883;-79
2022/11/04 11:36:47;;;;;;;;;;;;;;;;;;5040043;27;98541;-79
2022/11/04 11:39:20;;;;;;;1.35;1.25;;;;;;;;;;5053769;27;129913;-79
2022/11/04 11:42:02;;;;;;;5.85;2.00;;;;;;;;;;5052876;27;99223;-79
2022/11/04 11:44:33;;;;;;;1.70;1.60;;;;;;;;;;5035146;27;99913;-79
2022/11/04 11:47:04;;;;;;;1.70;1.60;;;;;;;;;;5020730;28;99498;-79
2022/11/04 11:49:33;;;;;;;2.03;1.48;;;;;;;;;;5032842;28;99137;-79
2022/11/04 11:52:16;;;;;;;1.30;1.20;;;;;;;;;;5033058;28;99485;-79
2022/11/04 11:54:45;;;;;;;2.20;1.60;;;;;;;;;;5014857;28;98760;-79
2022/11/04 11:57:34;;;;;;;2.50;1.52;;;;;;;;;;5015275;28;99152;-79
2022/11/04 12:00:08;;;;;;;1.75;1.48;;;;;;;;;;5020507;28;101928;-79
2022/11/04 12:02:57;;;;;;;1.60;1.50;;;;;;;;;;5033021;28;99020;-79
2022/11/04 12:05:50;;;;;;;1.50;1.40;;;;;;;;;;5014799;28;99504;-79
2022/11/04 12:08:42;;;;;;;3.28;1.38;;;;;;;;;;5015915;28;100067;-78
2022/11/04 12:11:41;;;;;;;1.42;1.23;;;;;;;;;;5020428;28;98553;-78
2022/11/04 12:14:22;;;;;;;2.90;1.80;;;;;;;;;;5030985;28;99440;-79
2022/11/04 12:16:54;;;;;;;1.95;1.40;;;;;;;;;;5015018;28;98564;-79
2022/11/04 12:19:33;;;;;;;2.65;1.60;;;;;;;;;;5032446;28;99142;-79
2022/11/04 12:22:18;;;;;;;2.28;1.30;;;;;;;;;;5032688;28;99456;-78
2022/11/04 12:24:45;;;;;;;2.80;1.67;;;;;;;;;;5032698;28;98496;-79
2022/11/04 12:27:14;;;;;;;1.60;1.40;;;;;;;;;;5033233;28;99452;-79
2022/11/04 12:29:59;;;;;;;2.10;1.60;;;;;;;;;;5014174;28;99572;-79
2022/11/04 12:32:36;;;;;;;1.95;1.60;;;;;;;;;;5032415;28;98618;-79
2022/11/04 12:35:20;;;;;;;3.15;1.38;;;;;;;;;;5034569;28;99195;-78
2022/11/04 12:37:46;;;;;;;1.20;1.10;;;;;;;;;;5029273;27;98735;-79
2022/11/04 12:40:20;;;;;;;2.05;1.35;;;;;;;;;;5053025;27;99057;-79
2022/11/04 12:43:01;;;;;;;1.63;1.52;;;;;;;;;;5033590;27;99510;-79
2022/11/04 12:45:33;;;;;;;1.40;1.30;;;;;;;;;;5047621;27;98517;-79
2022/11/04 12:48:04;;;;;;;3.15;1.50;;;;;;;;;;5014224;28;99121;-79
2022/11/04 12:50:37;;;;;;;1.67;1.30;;;;;;;;;;5032340;28;100814;-79
2022/11/04 12:53:09;;;;;;;1.33;1.23;;;;;;;;;;5014546;28;97708;-79
2022/11/04 12:55:51;;;;;;;1.77;1.58;;;;;;;;;;5032430;28;99436;-79
2022/11/04 12:58:28;;;;;;;2.42;1.60;;;;;;;;;;5016813;28;99556;-79
2022/11/04 13:01:03;;;;;;;2.42;1.30;;;;;;;;;;5013433;28;99147;-79
2022/11/04 13:03:37;;;;;;;1.38;1.30;;;;;;;;;;5031025;28;99601;-79
2022/11/04 13:06:09;;;;;;;1.63;1.20;;;;;;;;;;5031340;28;98497;-79
2022/11/04 13:08:38;;;;;;;2.03;1.60;;;;;;;;;;5014172;28;100840;-79
2022/11/04 13:11:21;;;;;;;1.40;1.30;;;;;;;;;;5031600;28;99478;-79
2022/11/04 13:13:50;;;;;;;1.50;1.30;;;;;;;;;;5013642;28;98574;-79
2022/11/04 13:16:16;;;;;;;1.20;1.10;;;;;;;;;;5013630;28;99221;-78
2022/11/04 13:18:46;;;;;;;2.80;1.40;;;;;;;;;;5034804;28;98768;-79
2022/11/04 13:21:15;;;;;;;1.45;1.33;;;;;;;;;;5013508;28;98499;-79
2022/11/04 13:23:46;;;;;;;1.52;1.27;;;;;;;;;;5012966;28;99675;-79
2022/11/04 13:26:14;;;;;;;2.00;1.17;;;;;;;;;;5030666;27;99226;-79
2022/11/04 13:28:41;;;;;;;2.60;1.20;;;;;;;;;;5031244;28;99917;-80
2022/11/04 13:31:08;;;;;;;2.47;1.20;;;;;;;;;;5030849;28;99473;-78
2022/11/04 13:33:42;;;;;;;2.58;1.10;;;;;;;;;;5012962;28;98742;-78
2022/11/04 13:36:15;;;;;;;2.33;1.42;;;;;;;;;;5014922;27;98495;-79
2022/11/04 13:38:46;;;;;;;1.98;1.30;;;;;;;;;;5033334;27;99465;-79
2022/11/04 13:41:16;;;;;;;2.70;1.23;;;;;;;;;;5055233;27;98503;-79
2022/11/04 13:43:50;;;;;;;1.30;1.20;;;;;;;;;;5034391;27;98896;-79
2022/11/04 13:46:16;;;;;;;2.03;1.20;;;;;;;;;;5039743;27;98529;-79
2022/11/04 13:48:56;;;;;;;1.23;1.13;;;;;;;;;;5031113;28;99118;-79
2022/11/04 13:51:22;;;;;;;2.08;1.17;;;;;;;;;;5012447;28;101397;-79
2022/11/04 13:53:50;;;;;;;2.25;1.35;;;;;;;;;;5012709;28;98546;-79
2022/11/04 13:56:31;;;;;;;1.50;1.05;;;;;;;;;;5013277;28;99554;-79
2022/11/04 13:59:18;;;;;;;1.02;1.02;;;;;;;;;;5030600;28;99480;-79
2022/11/04 14:01:45;;;;;;;4.10;1.25;;;;;;;;;;5012817;28;98601;-79
2022/11/04 14:04:11;;;;;;;1.38;1.10;;;;;;;;;;5033599;28;99349;-79
2022/11/04 14:06:46;;;;;;;1.30;1.20;;;;;;;;;;5030383;28;98489;-79
2022/11/04 14:09:29;;;;;;;3.70;1.25;;;;;;;;;;5013313;28;100198;-79
2022/11/04 14:12:19;;;;;;;1.40;1.30;;;;;;;;;;5012610;28;99471;-79
2022/11/04 14:14:47;;;;;;;1.10;1.10;;;;;;;;;;5017921;28;98504;-78
2022/11/04 14:17:31;;;;;;;3.45;1.48;;;;;;;;;;5030672;28;100168;-79
2022/11/04 14:20:00;;;;;;;1.52;1.00;;;;;;;;;;5030173;28;99481;-79
2022/11/04 14:22:31;;;;;;;2.45;1.10;;;;;;;;;;5030577;28;98539;-79
2022/11/04 14:24:59;;;;;;;1.05;1.00;;;;;;;;;;5030278;28;99122;-79
2022/11/04 14:27:45;;;;;;;2.20;1.35;;;;;;;;;;5015637;28;99519;-79
2022/11/04 14:30:32;;;;;;;1.15;1.00;;;;;;;;;;5030585;28;99155;-79
2022/11/04 14:33:01;;;;;;;1.08;0.98;;;;;;;;;;5012287;28;99525;-79
2022/11/04 14:35:29;;;;;;;0.95;0.88;;;;;;;;;;5030713;28;97801;-79
2022/11/04 14:37:56;;;;;;;1.10;0.90;;;;;;;;;;5048169;27;98729;-79
2022/11/04 14:40:27;;;;;;;1.50;1.05;;;;;;;;;;5054543;27;99721;-78
2022/11/04 14:42:55;;;;;;;0.90;0.90;;;;;;;;;;5035864;27;99260;-78
2022/11/04 14:45:23;;;;;;;1.73;1.25;;;;;;;;;;5051047;27;100258;-79
2022/11/04 14:48:08;;;;;;;2.00;1.00;;;;;;;;;;5015502;28;99805;-78
2022/11/04 14:50:42;;;;;;;0.88;0.88;;;;;;;;;;5036452;28;98474;-79
2022/11/04 14:53:12;;;;;;;0.90;0.90;;;;;;;;;;5033977;28;102349;-79
2022/11/04 14:55:39;;;;;;;0.90;0.90;;;;;;;;;;5033516;28;98825;-79
2022/11/04 14:58:22;;;;;;;1.23;1.00;;;;;;;;;;5033653;28;99535;-79
2022/11/04 15:00:48;;;;;;;0.80;0.77;;;;;;;;;;5015788;28;98767;-80
2022/11/04 15:03:21;;;;;;;1.27;1.00;;;;;;;;;;5034144;28;98470;-79
2022/11/04 15:06:09;;;;;;;0.95;0.80;;;;;;;;;;5032531;28;98737;-79
2022/11/04 15:08:41;;;;;;;0.80;0.80;;;;;;;;;;5032599;28;100129;-78
2022/11/04 15:11:07;;;;;;;0.77;0.77;;;;;;;;;;5033638;28;98528;-79
2022/11/04 15:13:43;;;;;;;0.77;0.70;;;;;;;;;;5036388;28;99337;-78
2022/11/04 15:16:13;;;;;;;1.52;0.90;;;;;;;;;;5034209;28;98451;-78
2022/11/04 15:18:39;;;;;;;0.70;0.70;;;;;;;;;;5033411;28;99336;-78
2022/11/04 15:21:06;;;;;;;0.88;0.80;;;;;;;;;;5015525;28;99862;-79
2022/11/04 15:23:35;;;;;;;1.15;0.90;;;;;;;;;;5015480;28;98537;-79
2022/11/04 15:26:02;;;;;;;1.77;1.02;;;;;;;;;;5016330;28;99111;-79
2022/11/04 15:28:33;;;;;;;1.05;1.00;;;;;;;;;;5032997;28;99476;-79